sensor_id;sensor_type;location;lat;lon;timestamp;temperature;humidity
16523;DHT22;19889;52.546;13.348;2023-04-25T00:00:03;13.30;99.90
16523;DHT22;19889;52.546;13.348;2023-04-25T00:02:37;13.20;99.90
16523;DHT22;19889;52.546;13.348;2023-04-25T00:05:05;13.20;99.90
16523;DHT22;19889;52.546;13.348;2023-04-25T00:07:33;13.10;99.90
16523;DHT22;19889;52.546;13.348;2023-04-25T00:10:02;13.20;99.90
16523;DHT22;19889;52.546;13.348;2023-04-25T00:12:28;13.10;99.90
16523;DHT22;19889;52.546;13.348;2023-04-25T00:14:55;13.10;99.90
16523;DHT22;19889;52.546;13.348;2023-04-25T00:17:23;13.10;99.90
16523;DHT22;19889;52.546;13.348;2023-04-25T00:19:51;13.10;99.90
16523;DHT22;19889;52.546;13.348;2023-04-25T00:22:18;13.10;99.90
16523;DHT22;19889;52.546;13.348;2023-04-25T00:24:45;13.10;99.90
16523;DHT22;19889;52.546;13.348;2023-04-25T00:27:13;13.10;99.90
16523;DHT22;19889;52.546;13.348;2023-04-25T00:29:40;13.10;99.90
16523;DHT22;19889;52.546;13.348;2023-04-25T00:32:07;13.20;99.90
16523;DHT22;19889;52.546;13.348;2023-04-25T00:34:34;13.00;99.90
16523;DHT22;19889;52.546;13.348;2023-04-25T00:37:01;13.00;99.90
16523;DHT22;19889;52.546;13.348;2023-04-25T00:39:28;13.10;99.90
16523;DHT22;19889;52.546;13.348;2023-04-25T00:41:55;13.00;99.90
16523;DHT22;19889;52.546;13.348;2023-04-25T00:44:24;13.00;99.90
16523;DHT22;19889;52.546;13.348;2023-04-25T00:46:52;13.00;99.90
16523;DHT22;19889;52.546;13.348;2023-04-25T00:49:20;13.00;99.90
16523;DHT22;19889;52.546;13.348;2023-04-25T00:51:48;13.00;99.90
16523;DHT22;19889;52.546;13.348;2023-04-25T00:54:15;13.00;99.90
16523;DHT22;19889;52.546;13.348;2023-04-25T00:56:42;13.00;99.90
16523;DHT22;19889;52.546;13.348;2023-04-25T00:59:10;12.90;99.90
16523;DHT22;19889;52.546;13.348;2023-04-25T01:01:41;13.00;99.90
16523;DHT22;19889;52.546;13.348;2023-04-25T01:04:08;13.10;99.90
16523;DHT22;19889;52.546;13.348;2023-04-25T01:06:35;13.00;99.90
16523;DHT22;19889;52.546;13.348;2023-04-25T01:09:04;13.00;99.90
16523;DHT22;19889;52.546;13.348;2023-04-25T01:11:31;12.90;99.90
16523;DHT22;19889;52.546;13.348;2023-04-25T01:13:58;13.00;99.90
16523;DHT22;19889;52.546;13.348;2023-04-25T01:16:26;12.90;99.90
16523;DHT22;19889;52.546;13.348;2023-04-25T01:18:54;12.90;99.90
16523;DHT22;19889;52.546;13.348;2023-04-25T01:21:23;12.90;99.90
16523;DHT22;19889;52.546;13.348;2023-04-25T01:23:54;12.90;99.90
16523;DHT22;19889;52.546;13.348;2023-04-25T01:26:21;12.90;99.90
16523;DHT22;19889;52.546;13.348;2023-04-25T01:28:49;13.00;99.90
16523;DHT22;19889;52.546;13.348;2023-04-25T01:31:17;13.00;99.90
16523;DHT22;19889;52.546;13.348;2023-04-25T01:33:44;12.90;99.90
16523;DHT22;19889;52.546;13.348;2023-04-25T01:36:12;12.90;99.90
16523;DHT22;19889;52.546;13.348;2023-04-25T01:38:40;13.00;99.90
16523;DHT22;19889;52.546;13.348;2023-04-25T01:41:09;12.90;99.90
16523;DHT22;19889;52.546;13.348;2023-04-25T01:43:36;12.90;99.90
16523;DHT22;19889;52.546;13.348;2023-04-25T01:46:04;12.90;99.90
16523;DHT22;19889;52.546;13.348;2023-04-25T01:48:31;12.90;99.90
16523;DHT22;19889;52.546;13.348;2023-04-25T01:50:58;12.90;99.90
16523;DHT22;19889;52.546;13.348;2023-04-25T01:53:25;12.30;99.90
16523;DHT22;19889;52.546;13.348;2023-04-25T01:55:54;12.90;99.90
16523;DHT22;19889;52.546;13.348;2023-04-25T01:58:22;12.80;99.90
16523;DHT22;19889;52.546;13.348;2023-04-25T02:01:16;12.80;99.90
16523;DHT22;19889;52.546;13.348;2023-04-25T02:03:51;12.80;99.90
16523;DHT22;19889;52.546;13.348;2023-04-25T02:06:27;12.80;99.90
16523;DHT22;19889;52.546;13.348;2023-04-25T02:08:56;12.80;99.90
16523;DHT22;19889;52.546;13.348;2023-04-25T02:11:24;12.80;99.90
16523;DHT22;19889;52.546;13.348;2023-04-25T02:14:11;12.70;99.90
16523;DHT22;19889;52.546;13.348;2023-04-25T02:16:47;12.80;99.90
16523;DHT22;19889;52.546;13.348;2023-04-25T02:19:14;12.80;99.90
16523;DHT22;19889;52.546;13.348;2023-04-25T02:21:41;12.80;99.90
16523;DHT22;19889;52.546;13.348;2023-04-25T02:24:10;12.80;99.90
16523;DHT22;19889;52.546;13.348;2023-04-25T02:26:39;12.80;99.90
16523;DHT22;19889;52.546;13.348;2023-04-25T02:29:08;12.80;99.90
16523;DHT22;19889;52.546;13.348;2023-04-25T02:31:35;12.80;99.90
16523;DHT22;19889;52.546;13.348;2023-04-25T02:34:02;12.80;99.90
16523;DHT22;19889;52.546;13.348;2023-04-25T02:36:30;12.70;99.90
16523;DHT22;19889;52.546;13.348;2023-04-25T02:38:59;12.70;99.90
16523;DHT22;19889;52.546;13.348;2023-04-25T02:41:26;12.70;99.90
16523;DHT22;19889;52.546;13.348;2023-04-25T02:43:56;12.70;99.90
16523;DHT22;19889;52.546;13.348;2023-04-25T02:46:23;12.80;99.90
16523;DHT22;19889;52.546;13.348;2023-04-25T02:48:50;12.70;99.90
16523;DHT22;19889;52.546;13.348;2023-04-25T02:51:17;12.70;99.90
16523;DHT22;19889;52.546;13.348;2023-04-25T02:53:44;12.70;99.90
16523;DHT22;19889;52.546;13.348;2023-04-25T02:56:11;12.70;99.90
16523;DHT22;19889;52.546;13.348;2023-04-25T02:58:38;12.70;99.90
16523;DHT22;19889;52.546;13.348;2023-04-25T03:01:06;12.70;99.90
16523;DHT22;19889;52.546;13.348;2023-04-25T03:03:33;12.70;99.90
16523;DHT22;19889;52.546;13.348;2023-04-25T03:06:00;12.70;99.90
16523;DHT22;19889;52.546;13.348;2023-04-25T03:08:31;12.60;99.90
16523;DHT22;19889;52.546;13.348;2023-04-25T03:11:00;12.60;99.90
16523;DHT22;19889;52.546;13.348;2023-04-25T03:13:28;12.60;99.90
16523;DHT22;19889;52.546;13.348;2023-04-25T03:15:56;12.60;99.90
16523;DHT22;19889;52.546;13.348;2023-04-25T03:18:24;12.60;99.90
16523;DHT22;19889;52.546;13.348;2023-04-25T03:20:51;12.60;99.90
16523;DHT22;19889;52.546;13.348;2023-04-25T03:23:18;12.60;99.90
16523;DHT22;19889;52.546;13.348;2023-04-25T03:25:45;12.60;99.90
16523;DHT22;19889;52.546;13.348;2023-04-25T03:28:13;12.60;99.90
16523;DHT22;19889;52.546;13.348;2023-04-25T03:30:40;12.60;99.90
16523;DHT22;19889;52.546;13.348;2023-04-25T03:33:06;12.50;99.90
16523;DHT22;19889;52.546;13.348;2023-04-25T03:35:35;12.50;99.90
16523;DHT22;19889;52.546;13.348;2023-04-25T03:38:02;12.50;99.90
16523;DHT22;19889;52.546;13.348;2023-04-25T03:40:34;12.50;99.90
16523;DHT22;19889;52.546;13.348;2023-04-25T03:43:20;12.50;99.90
16523;DHT22;19889;52.546;13.348;2023-04-25T03:45:55;12.50;99.90
16523;DHT22;19889;52.546;13.348;2023-04-25T03:48:22;12.50;99.90
16523;DHT22;19889;52.546;13.348;2023-04-25T03:50:52;12.50;99.90
16523;DHT22;19889;52.546;13.348;2023-04-25T03:53:19;12.50;99.90
16523;DHT22;19889;52.546;13.348;2023-04-25T03:56:05;12.50;99.90
16523;DHT22;19889;52.546;13.348;2023-04-25T03:58:35;12.50;99.90
16523;DHT22;19889;52.546;13.348;2023-04-25T04:01:02;12.40;99.90
16523;DHT22;19889;52.546;13.348;2023-04-25T04:03:33;12.50;99.90
16523;DHT22;19889;52.546;13.348;2023-04-25T04:06:03;12.40;99.90
16523;DHT22;19889;52.546;13.348;2023-04-25T04:08:33;12.40;99.90
16523;DHT22;19889;52.546;13.348;2023-04-25T04:11:00;12.40;99.90
16523;DHT22;19889;52.546;13.348;2023-04-25T04:13:27;12.40;99.90
16523;DHT22;19889;52.546;13.348;2023-04-25T04:15:54;12.40;99.90
16523;DHT22;19889;52.546;13.348;2023-04-25T04:18:24;12.40;99.90
16523;DHT22;19889;52.546;13.348;2023-04-25T04:20:51;12.40;99.90
16523;DHT22;19889;52.546;13.348;2023-04-25T04:23:19;12.40;99.90
16523;DHT22;19889;52.546;13.348;2023-04-25T04:25:48;12.40;99.90
16523;DHT22;19889;52.546;13.348;2023-04-25T04:28:38;12.30;99.90
16523;DHT22;19889;52.546;13.348;2023-04-25T04:31:29;12.40;99.90
16523;DHT22;19889;52.546;13.348;2023-04-25T04:33:56;12.40;99.90
16523;DHT22;19889;52.546;13.348;2023-04-25T04:36:23;12.30;99.90
16523;DHT22;19889;52.546;13.348;2023-04-25T04:38:54;12.30;99.90
16523;DHT22;19889;52.546;13.348;2023-04-25T04:41:42;12.30;99.90
16523;DHT22;19889;52.546;13.348;2023-04-25T04:44:13;12.30;99.90
16523;DHT22;19889;52.546;13.348;2023-04-25T04:46:52;12.30;99.90
16523;DHT22;19889;52.546;13.348;2023-04-25T04:49:38;12.30;99.90
16523;DHT22;19889;52.546;13.348;2023-04-25T04:52:19;12.30;99.90
16523;DHT22;19889;52.546;13.348;2023-04-25T04:55:14;12.20;99.90
16523;DHT22;19889;52.546;13.348;2023-04-25T04:58:02;12.30;99.90
16523;DHT22;19889;52.546;13.348;2023-04-25T05:00:49;12.20;99.90
16523;DHT22;19889;52.546;13.348;2023-04-25T05:03:48;12.30;99.90
16523;DHT22;19889;52.546;13.348;2023-04-25T05:06:38;12.20;99.90
16523;DHT22;19889;52.546;13.348;2023-04-25T05:09:38;12.20;99.90
16523;DHT22;19889;52.546;13.348;2023-04-25T05:12:39;12.20;99.90
16523;DHT22;19889;52.546;13.348;2023-04-25T05:15:25;12.20;99.90
16523;DHT22;19889;52.546;13.348;2023-04-25T05:18:21;12.20;99.90
16523;DHT22;19889;52.546;13.348;2023-04-25T05:21:14;12.20;99.90
16523;DHT22;19889;52.546;13.348;2023-04-25T05:23:49;12.20;99.90
16523;DHT22;19889;52.546;13.348;2023-04-25T05:26:36;12.20;99.90
16523;DHT22;19889;52.546;13.348;2023-04-25T05:29:23;12.20;99.90
16523;DHT22;19889;52.546;13.348;2023-04-25T05:32:11;12.20;99.90
16523;DHT22;19889;52.546;13.348;2023-04-25T05:34:39;12.20;99.90
16523;DHT22;19889;52.546;13.348;2023-04-25T05:37:14;12.20;99.90
16523;DHT22;19889;52.546;13.348;2023-04-25T05:39:52;12.20;99.90
16523;DHT22;19889;52.546;13.348;2023-04-25T05:42:47;13.90;99.90
16523;DHT22;19889;52.546;13.348;2023-04-25T05:45:44;12.20;99.90
16523;DHT22;19889;52.546;13.348;2023-04-25T05:48:29;12.20;99.90
16523;DHT22;19889;52.546;13.348;2023-04-25T05:51:08;12.20;99.90
16523;DHT22;19889;52.546;13.348;2023-04-25T05:53:51;12.20;99.90
16523;DHT22;19889;52.546;13.348;2023-04-25T05:56:18;12.20;99.90
16523;DHT22;19889;52.546;13.348;2023-04-25T05:58:50;12.20;99.90
16523;DHT22;19889;52.546;13.348;2023-04-25T06:01:19;12.20;99.90
16523;DHT22;19889;52.546;13.348;2023-04-25T06:03:46;12.20;99.90
16523;DHT22;19889;52.546;13.348;2023-04-25T06:06:13;12.20;99.90
16523;DHT22;19889;52.546;13.348;2023-04-25T06:08:40;13.60;99.90
16523;DHT22;19889;52.546;13.348;2023-04-25T06:11:10;12.20;99.90
16523;DHT22;19889;52.546;13.348;2023-04-25T06:13:37;12.30;99.90
16523;DHT22;19889;52.546;13.348;2023-04-25T06:16:05;12.30;99.90
16523;DHT22;19889;52.546;13.348;2023-04-25T06:18:34;12.30;99.90
16523;DHT22;19889;52.546;13.348;2023-04-25T06:21:01;12.30;99.90
16523;DHT22;19889;52.546;13.348;2023-04-25T06:23:28;12.30;99.90
16523;DHT22;19889;52.546;13.348;2023-04-25T06:26:01;12.20;99.90
16523;DHT22;19889;52.546;13.348;2023-04-25T06:28:29;12.20;99.90
16523;DHT22;19889;52.546;13.348;2023-04-25T06:30:56;12.20;99.90
16523;DHT22;19889;52.546;13.348;2023-04-25T06:33:23;12.20;99.90
16523;DHT22;19889;52.546;13.348;2023-04-25T06:35:53;12.20;99.90
16523;DHT22;19889;52.546;13.348;2023-04-25T06:38:23;12.20;99.90
16523;DHT22;19889;52.546;13.348;2023-04-25T06:40:52;12.20;99.90
16523;DHT22;19889;52.546;13.348;2023-04-25T06:43:19;12.20;99.90
16523;DHT22;19889;52.546;13.348;2023-04-25T06:46:04;12.20;99.90
16523;DHT22;19889;52.546;13.348;2023-04-25T06:48:35;12.20;99.90
16523;DHT22;19889;52.546;13.348;2023-04-25T06:51:03;12.20;99.90
16523;DHT22;19889;52.546;13.348;2023-04-25T06:53:30;12.20;99.90
16523;DHT22;19889;52.546;13.348;2023-04-25T06:56:00;12.20;99.90
16523;DHT22;19889;52.546;13.348;2023-04-25T06:58:59;13.20;99.90
16523;DHT22;19889;52.546;13.348;2023-04-25T07:01:30;12.20;99.90
16523;DHT22;19889;52.546;13.348;2023-04-25T07:03:58;12.20;99.90
16523;DHT22;19889;52.546;13.348;2023-04-25T07:06:27;12.20;99.90
16523;DHT22;19889;52.546;13.348;2023-04-25T07:08:54;12.30;99.90
16523;DHT22;19889;52.546;13.348;2023-04-25T07:11:22;12.10;99.90
16523;DHT22;19889;52.546;13.348;2023-04-25T07:13:49;12.10;99.90
16523;DHT22;19889;52.546;13.348;2023-04-25T07:16:16;12.10;99.90
16523;DHT22;19889;52.546;13.348;2023-04-25T07:18:43;12.10;99.90
16523;DHT22;19889;52.546;13.348;2023-04-25T07:21:10;12.20;99.90
16523;DHT22;19889;52.546;13.348;2023-04-25T07:23:39;12.10;99.90
16523;DHT22;19889;52.546;13.348;2023-04-25T07:26:10;12.10;99.90
16523;DHT22;19889;52.546;13.348;2023-04-25T07:28:49;12.10;99.90
16523;DHT22;19889;52.546;13.348;2023-04-25T07:31:20;12.20;99.90
16523;DHT22;19889;52.546;13.348;2023-04-25T07:33:47;12.20;99.90
16523;DHT22;19889;52.546;13.348;2023-04-25T07:36:14;12.10;99.90
16523;DHT22;19889;52.546;13.348;2023-04-25T07:38:43;12.10;99.90
16523;DHT22;19889;52.546;13.348;2023-04-25T07:41:10;12.10;99.90
16523;DHT22;19889;52.546;13.348;2023-04-25T07:43:37;12.90;99.90
16523;DHT22;19889;52.546;13.348;2023-04-25T07:46:04;12.10;99.90
16523;DHT22;19889;52.546;13.348;2023-04-25T07:48:33;12.10;99.90
16523;DHT22;19889;52.546;13.348;2023-04-25T07:51:01;12.10;99.90
16523;DHT22;19889;52.546;13.348;2023-04-25T07:53:30;12.10;99.90
16523;DHT22;19889;52.546;13.348;2023-04-25T07:56:03;12.10;99.90
16523;DHT22;19889;52.546;13.348;2023-04-25T07:58:33;12.00;99.90
16523;DHT22;19889;52.546;13.348;2023-04-25T08:01:02;12.00;99.90
16523;DHT22;19889;52.546;13.348;2023-04-25T08:03:43;12.00;99.90
16523;DHT22;19889;52.546;13.348;2023-04-25T08:06:31;12.70;99.90
16523;DHT22;19889;52.546;13.348;2023-04-25T08:09:12;12.00;99.90
16523;DHT22;19889;52.546;13.348;2023-04-25T08:11:42;12.00;99.90
16523;DHT22;19889;52.546;13.348;2023-04-25T08:14:12;12.00;99.90
16523;DHT22;19889;52.546;13.348;2023-04-25T08:16:40;12.00;99.90
16523;DHT22;19889;52.546;13.348;2023-04-25T08:19:09;12.00;99.90
16523;DHT22;19889;52.546;13.348;2023-04-25T08:21:36;12.10;99.90
16523;DHT22;19889;52.546;13.348;2023-04-25T08:24:08;12.10;99.90
16523;DHT22;19889;52.546;13.348;2023-04-25T08:26:37;12.10;99.90
16523;DHT22;19889;52.546;13.348;2023-04-25T08:29:07;12.20;99.90
16523;DHT22;19889;52.546;13.348;2023-04-25T08:31:38;12.10;99.90
16523;DHT22;19889;52.546;13.348;2023-04-25T08:34:06;12.20;99.90
16523;DHT22;19889;52.546;13.348;2023-04-25T08:36:45;12.20;99.90
16523;DHT22;19889;52.546;13.348;2023-04-25T08:39:24;12.20;99.90
16523;DHT22;19889;52.546;13.348;2023-04-25T08:42:14;12.20;99.90
16523;DHT22;19889;52.546;13.348;2023-04-25T08:44:45;12.30;99.90
16523;DHT22;19889;52.546;13.348;2023-04-25T08:47:12;12.30;99.90
16523;DHT22;19889;52.546;13.348;2023-04-25T08:49:47;12.40;99.90
16523;DHT22;19889;52.546;13.348;2023-04-25T08:52:22;12.60;99.90
16523;DHT22;19889;52.546;13.348;2023-04-25T08:54:49;12.70;99.90
16523;DHT22;19889;52.546;13.348;2023-04-25T08:57:18;12.80;99.90
16523;DHT22;19889;52.546;13.348;2023-04-25T08:59:49;12.90;99.90
16523;DHT22;19889;52.546;13.348;2023-04-25T09:02:17;13.00;99.90
16523;DHT22;19889;52.546;13.348;2023-04-25T09:04:48;13.20;99.90
16523;DHT22;19889;52.546;13.348;2023-04-25T09:07:16;13.50;99.90
16523;DHT22;19889;52.546;13.348;2023-04-25T09:09:46;13.60;99.90
16523;DHT22;19889;52.546;13.348;2023-04-25T09:12:18;13.70;99.90
16523;DHT22;19889;52.546;13.348;2023-04-25T09:15:01;13.70;99.90
16523;DHT22;19889;52.546;13.348;2023-04-25T09:17:44;13.70;98.90
16523;DHT22;19889;52.546;13.348;2023-04-25T09:20:13;13.60;98.70
16523;DHT22;19889;52.546;13.348;2023-04-25T09:22:40;13.50;98.40
16523;DHT22;19889;52.546;13.348;2023-04-25T09:25:09;13.50;98.30
16523;DHT22;19889;52.546;13.348;2023-04-25T09:27:49;13.40;98.10
16523;DHT22;19889;52.546;13.348;2023-04-25T09:30:30;13.40;98.10
16523;DHT22;19889;52.546;13.348;2023-04-25T09:33:06;13.40;97.90
16523;DHT22;19889;52.546;13.348;2023-04-25T09:35:39;13.30;97.70
16523;DHT22;19889;52.546;13.348;2023-04-25T09:38:10;13.30;97.60
16523;DHT22;19889;52.546;13.348;2023-04-25T09:40:56;13.20;97.60
16523;DHT22;19889;52.546;13.348;2023-04-25T09:43:45;13.20;97.50
16523;DHT22;19889;52.546;13.348;2023-04-25T09:46:15;13.10;97.10
16523;DHT22;19889;52.546;13.348;2023-04-25T09:48:50;13.10;96.90
16523;DHT22;19889;52.546;13.348;2023-04-25T09:51:26;13.00;96.70
16523;DHT22;19889;52.546;13.348;2023-04-25T09:53:54;13.00;96.60
16523;DHT22;19889;52.546;13.348;2023-04-25T09:56:29;13.00;96.50
16523;DHT22;19889;52.546;13.348;2023-04-25T09:59:00;13.00;96.40
16523;DHT22;19889;52.546;13.348;2023-04-25T10:01:30;13.00;96.50
16523;DHT22;19889;52.546;13.348;2023-04-25T10:04:08;12.80;96.20
16523;DHT22;19889;52.546;13.348;2023-04-25T10:07:09;13.00;96.10
16523;DHT22;19889;52.546;13.348;2023-04-25T10:09:37;13.00;95.70
16523;DHT22;19889;52.546;13.348;2023-04-25T10:12:05;13.00;95.60
16523;DHT22;19889;52.546;13.348;2023-04-25T10:14:33;13.00;95.50
16523;DHT22;19889;52.546;13.348;2023-04-25T10:17:01;12.90;95.40
16523;DHT22;19889;52.546;13.348;2023-04-25T10:19:28;13.00;95.20
16523;DHT22;19889;52.546;13.348;2023-04-25T10:22:02;13.00;95.10
16523;DHT22;19889;52.546;13.348;2023-04-25T10:24:30;13.00;95.00
16523;DHT22;19889;52.546;13.348;2023-04-25T10:26:58;13.00;94.80
16523;DHT22;19889;52.546;13.348;2023-04-25T10:29:26;13.00;94.60
16523;DHT22;19889;52.546;13.348;2023-04-25T10:32:03;13.00;94.40
16523;DHT22;19889;52.546;13.348;2023-04-25T10:34:41;12.90;94.10
16523;DHT22;19889;52.546;13.348;2023-04-25T10:37:09;12.90;94.20
16523;DHT22;19889;52.546;13.348;2023-04-25T10:39:38;12.90;94.30
16523;DHT22;19889;52.546;13.348;2023-04-25T10:42:06;12.90;94.20
16523;DHT22;19889;52.546;13.348;2023-04-25T10:44:34;13.00;94.10
16523;DHT22;19889;52.546;13.348;2023-04-25T10:47:07;12.90;94.00
16523;DHT22;19889;52.546;13.348;2023-04-25T10:49:36;12.90;93.80
16523;DHT22;19889;52.546;13.348;2023-04-25T10:52:17;13.00;93.80
16523;DHT22;19889;52.546;13.348;2023-04-25T10:54:47;13.00;93.70
16523;DHT22;19889;52.546;13.348;2023-04-25T10:57:45;13.00;93.60
16523;DHT22;19889;52.546;13.348;2023-04-25T11:00:16;13.00;93.30
16523;DHT22;19889;52.546;13.348;2023-04-25T11:02:47;13.10;93.30
16523;DHT22;19889;52.546;13.348;2023-04-25T11:05:22;13.10;93.40
16523;DHT22;19889;52.546;13.348;2023-04-25T11:07:51;13.10;93.00
16523;DHT22;19889;52.546;13.348;2023-04-25T11:10:19;13.10;93.10
16523;DHT22;19889;52.546;13.348;2023-04-25T11:12:46;13.00;93.00
16523;DHT22;19889;52.546;13.348;2023-04-25T11:15:14;13.00;93.00
16523;DHT22;19889;52.546;13.348;2023-04-25T11:17:41;13.00;92.70
16523;DHT22;19889;52.546;13.348;2023-04-25T11:20:10;12.90;92.50
16523;DHT22;19889;52.546;13.348;2023-04-25T11:22:40;12.80;92.60
16523;DHT22;19889;52.546;13.348;2023-04-25T11:25:08;12.80;92.50
16523;DHT22;19889;52.546;13.348;2023-04-25T11:27:38;12.70;92.40
16523;DHT22;19889;52.546;13.348;2023-04-25T11:30:13;12.70;92.60
16523;DHT22;19889;52.546;13.348;2023-04-25T11:32:41;12.70;92.60
16523;DHT22;19889;52.546;13.348;2023-04-25T11:35:10;12.80;92.50
16523;DHT22;19889;52.546;13.348;2023-04-25T11:37:39;12.80;92.50
16523;DHT22;19889;52.546;13.348;2023-04-25T11:40:07;13.10;92.50
16523;DHT22;19889;52.546;13.348;2023-04-25T11:42:37;12.90;92.20
16523;DHT22;19889;52.546;13.348;2023-04-25T11:45:05;12.90;92.20
16523;DHT22;19889;52.546;13.348;2023-04-25T11:47:33;12.90;92.10
16523;DHT22;19889;52.546;13.348;2023-04-25T11:50:01;12.90;92.10
16523;DHT22;19889;52.546;13.348;2023-04-25T11:52:40;13.10;92.20
16523;DHT22;19889;52.546;13.348;2023-04-25T11:55:09;13.00;92.00
16523;DHT22;19889;52.546;13.348;2023-04-25T11:57:38;13.00;92.00
16523;DHT22;19889;52.546;13.348;2023-04-25T12:00:11;13.00;91.80
16523;DHT22;19889;52.546;13.348;2023-04-25T12:02:41;13.00;91.80
16523;DHT22;19889;52.546;13.348;2023-04-25T12:05:08;13.00;91.70
16523;DHT22;19889;52.546;13.348;2023-04-25T12:07:36;13.00;91.60
16523;DHT22;19889;52.546;13.348;2023-04-25T12:10:09;13.00;91.60
16523;DHT22;19889;52.546;13.348;2023-04-25T12:12:38;13.00;91.40
16523;DHT22;19889;52.546;13.348;2023-04-25T12:15:12;13.00;91.40
16523;DHT22;19889;52.546;13.348;2023-04-25T12:17:41;12.90;91.30
16523;DHT22;19889;52.546;13.348;2023-04-25T12:20:11;12.90;91.20
16523;DHT22;19889;52.546;13.348;2023-04-25T12:22:40;12.90;91.10
16523;DHT22;19889;52.546;13.348;2023-04-25T12:25:12;12.90;91.10
16523;DHT22;19889;52.546;13.348;2023-04-25T12:27:39;12.90;91.20
16523;DHT22;19889;52.546;13.348;2023-04-25T12:30:08;12.90;91.30
16523;DHT22;19889;52.546;13.348;2023-04-25T12:32:36;13.00;91.20
16523;DHT22;19889;52.546;13.348;2023-04-25T12:35:04;13.00;91.20
16523;DHT22;19889;52.546;13.348;2023-04-25T12:37:32;13.00;91.10
16523;DHT22;19889;52.546;13.348;2023-04-25T12:39:59;13.00;91.00
16523;DHT22;19889;52.546;13.348;2023-04-25T12:42:27;13.00;90.70
16523;DHT22;19889;52.546;13.348;2023-04-25T12:44:54;13.00;90.70
16523;DHT22;19889;52.546;13.348;2023-04-25T12:47:21;13.00;90.70
16523;DHT22;19889;52.546;13.348;2023-04-25T12:49:48;13.00;90.70
16523;DHT22;19889;52.546;13.348;2023-04-25T12:52:15;13.20;90.70
16523;DHT22;19889;52.546;13.348;2023-04-25T12:54:42;13.00;90.60
16523;DHT22;19889;52.546;13.348;2023-04-25T12:57:08;13.00;90.40
16523;DHT22;19889;52.546;13.348;2023-04-25T12:59:38;13.10;90.40
16523;DHT22;19889;52.546;13.348;2023-04-25T13:02:05;13.00;90.20
16523;DHT22;19889;52.546;13.348;2023-04-25T13:04:32;13.10;90.20
16523;DHT22;19889;52.546;13.348;2023-04-25T13:06:59;13.10;90.60
16523;DHT22;19889;52.546;13.348;2023-04-25T13:09:26;13.10;90.00
16523;DHT22;19889;52.546;13.348;2023-04-25T13:11:53;13.10;90.00
16523;DHT22;19889;52.546;13.348;2023-04-25T13:14:19;13.10;90.10
16523;DHT22;19889;52.546;13.348;2023-04-25T13:16:48;13.10;90.10
16523;DHT22;19889;52.546;13.348;2023-04-25T13:19:15;13.10;90.10
16523;DHT22;19889;52.546;13.348;2023-04-25T13:21:42;13.10;90.10
16523;DHT22;19889;52.546;13.348;2023-04-25T13:24:09;13.20;90.00
16523;DHT22;19889;52.546;13.348;2023-04-25T13:26:36;13.20;89.90
16523;DHT22;19889;52.546;13.348;2023-04-25T13:29:03;13.20;90.00
16523;DHT22;19889;52.546;13.348;2023-04-25T13:31:31;13.20;90.00
16523;DHT22;19889;52.546;13.348;2023-04-25T13:33:59;13.20;90.00
16523;DHT22;19889;52.546;13.348;2023-04-25T13:36:26;13.30;90.00
16523;DHT22;19889;52.546;13.348;2023-04-25T13:38:53;13.20;89.90
16523;DHT22;19889;52.546;13.348;2023-04-25T13:41:20;13.20;90.10
16523;DHT22;19889;52.546;13.348;2023-04-25T13:43:47;13.10;90.10
16523;DHT22;19889;52.546;13.348;2023-04-25T13:46:14;13.10;90.10
16523;DHT22;19889;52.546;13.348;2023-04-25T13:48:42;13.10;90.20
16523;DHT22;19889;52.546;13.348;2023-04-25T13:51:16;13.20;90.20
16523;DHT22;19889;52.546;13.348;2023-04-25T13:53:44;13.10;90.20
16523;DHT22;19889;52.546;13.348;2023-04-25T13:56:12;13.10;90.20
16523;DHT22;19889;52.546;13.348;2023-04-25T13:58:39;13.10;90.20
16523;DHT22;19889;52.546;13.348;2023-04-25T14:01:06;13.10;90.20
16523;DHT22;19889;52.546;13.348;2023-04-25T14:03:33;13.10;90.20
16523;DHT22;19889;52.546;13.348;2023-04-25T14:06:00;13.10;90.20
16523;DHT22;19889;52.546;13.348;2023-04-25T14:08:28;13.10;90.10
16523;DHT22;19889;52.546;13.348;2023-04-25T14:10:55;13.10;90.10
16523;DHT22;19889;52.546;13.348;2023-04-25T14:13:22;14.00;90.50
16523;DHT22;19889;52.546;13.348;2023-04-25T14:15:50;13.10;90.30
16523;DHT22;19889;52.546;13.348;2023-04-25T14:18:17;13.10;90.30
16523;DHT22;19889;52.546;13.348;2023-04-25T14:20:45;13.10;90.30
16523;DHT22;19889;52.546;13.348;2023-04-25T14:23:12;13.10;90.10
16523;DHT22;19889;52.546;13.348;2023-04-25T14:25:41;13.10;90.00
16523;DHT22;19889;52.546;13.348;2023-04-25T14:28:09;13.10;89.80
16523;DHT22;19889;52.546;13.348;2023-04-25T14:30:36;13.30;89.90
16523;DHT22;19889;52.546;13.348;2023-04-25T14:33:03;13.10;89.60
16523;DHT22;19889;52.546;13.348;2023-04-25T14:35:30;13.10;89.60
16523;DHT22;19889;52.546;13.348;2023-04-25T14:37:57;13.00;89.40
16523;DHT22;19889;52.546;13.348;2023-04-25T14:40:25;13.00;89.60
16523;DHT22;19889;52.546;13.348;2023-04-25T14:42:54;13.10;90.00
16523;DHT22;19889;52.546;13.348;2023-04-25T14:45:21;13.10;90.00
16523;DHT22;19889;52.546;13.348;2023-04-25T14:47:47;13.10;90.00
16523;DHT22;19889;52.546;13.348;2023-04-25T14:50:15;13.10;90.10
16523;DHT22;19889;52.546;13.348;2023-04-25T14:52:42;13.10;90.20
16523;DHT22;19889;52.546;13.348;2023-04-25T14:55:10;13.00;90.20
16523;DHT22;19889;52.546;13.348;2023-04-25T14:57:37;13.00;90.40
16523;DHT22;19889;52.546;13.348;2023-04-25T15:00:09;13.00;90.60
16523;DHT22;19889;52.546;13.348;2023-04-25T15:02:37;12.90;90.80
16523;DHT22;19889;52.546;13.348;2023-04-25T15:05:05;12.90;90.90
16523;DHT22;19889;52.546;13.348;2023-04-25T15:07:34;12.90;91.00
16523;DHT22;19889;52.546;13.348;2023-04-25T15:10:01;12.90;91.10
16523;DHT22;19889;52.546;13.348;2023-04-25T15:12:28;12.90;91.20
16523;DHT22;19889;52.546;13.348;2023-04-25T15:14:55;12.90;91.20
16523;DHT22;19889;52.546;13.348;2023-04-25T15:17:24;12.90;91.30
16523;DHT22;19889;52.546;13.348;2023-04-25T15:19:51;12.90;91.30
16523;DHT22;19889;52.546;13.348;2023-04-25T15:22:20;12.90;91.30
16523;DHT22;19889;52.546;13.348;2023-04-25T15:24:47;12.90;91.30
16523;DHT22;19889;52.546;13.348;2023-04-25T15:27:14;12.80;91.10
16523;DHT22;19889;52.546;13.348;2023-04-25T15:29:41;12.90;91.00
16523;DHT22;19889;52.546;13.348;2023-04-25T15:32:08;12.80;90.90
16523;DHT22;19889;52.546;13.348;2023-04-25T15:34:36;12.80;90.90
16523;DHT22;19889;52.546;13.348;2023-04-25T15:37:03;12.80;90.80